sensor_id;sensor_type;location;lat;lon;timestamp;temperature;humidity
60039;DHT22;45916;52.734;6.544;2023-02-28T00:00:06;3.50;99.90
60039;DHT22;45916;52.734;6.544;2023-02-28T00:02:39;3.50;99.90
60039;DHT22;45916;52.734;6.544;2023-02-28T00:05:06;3.50;99.90
60039;DHT22;45916;52.734;6.544;2023-02-28T00:07:33;3.50;99.90
60039;DHT22;45916;52.734;6.544;2023-02-28T00:09:59;3.50;99.90
60039;DHT22;45916;52.734;6.544;2023-02-28T00:12:25;3.50;99.90
60039;DHT22;45916;52.734;6.544;2023-02-28T00:14:51;3.50;99.90
60039;DHT22;45916;52.734;6.544;2023-02-28T00:17:17;3.50;99.90
60039;DHT22;45916;52.734;6.544;2023-02-28T00:19:47;3.50;99.90
60039;DHT22;45916;52.734;6.544;2023-02-28T00:22:14;3.50;99.90
60039;DHT22;45916;52.734;6.544;2023-02-28T00:24:40;3.50;99.90
60039;DHT22;45916;52.734;6.544;2023-02-28T00:27:06;3.50;99.90
60039;DHT22;45916;52.734;6.544;2023-02-28T00:29:31;3.60;99.90
60039;DHT22;45916;52.734;6.544;2023-02-28T00:31:57;3.60;99.90
60039;DHT22;45916;52.734;6.544;2023-02-28T00:34:23;3.50;99.90
60039;DHT22;45916;52.734;6.544;2023-02-28T00:36:48;3.50;99.90
60039;DHT22;45916;52.734;6.544;2023-02-28T00:39:15;3.50;99.90
60039;DHT22;45916;52.734;6.544;2023-02-28T00:41:41;3.50;99.90
60039;DHT22;45916;52.734;6.544;2023-02-28T00:44:06;3.50;99.90
60039;DHT22;45916;52.734;6.544;2023-02-28T00:46:32;3.50;99.90
60039;DHT22;45916;52.734;6.544;2023-02-28T00:48:58;3.50;99.90
60039;DHT22;45916;52.734;6.544;2023-02-28T00:51:24;3.50;99.90
60039;DHT22;45916;52.734;6.544;2023-02-28T00:53:49;3.60;99.90
60039;DHT22;45916;52.734;6.544;2023-02-28T00:56:15;3.40;99.90
60039;DHT22;45916;52.734;6.544;2023-02-28T00:58:41;3.50;99.90
60039;DHT22;45916;52.734;6.544;2023-02-28T01:01:07;3.50;99.90
60039;DHT22;45916;52.734;6.544;2023-02-28T01:03:33;3.60;99.90
60039;DHT22;45916;52.734;6.544;2023-02-28T01:05:58;3.60;99.90
60039;DHT22;45916;52.734;6.544;2023-02-28T01:08:24;3.60;99.90
60039;DHT22;45916;52.734;6.544;2023-02-28T01:10:52;3.60;99.90
60039;DHT22;45916;52.734;6.544;2023-02-28T01:13:18;3.60;99.90
60039;DHT22;45916;52.734;6.544;2023-02-28T01:15:52;3.50;99.90
60039;DHT22;45916;52.734;6.544;2023-02-28T01:18:18;3.50;99.90
60039;DHT22;45916;52.734;6.544;2023-02-28T01:20:44;3.50;99.90
60039;DHT22;45916;52.734;6.544;2023-02-28T01:23:11;3.50;99.90
60039;DHT22;45916;52.734;6.544;2023-02-28T01:25:37;3.50;99.90
60039;DHT22;45916;52.734;6.544;2023-02-28T01:28:03;3.50;99.90
60039;DHT22;45916;52.734;6.544;2023-02-28T01:30:30;3.50;99.90
60039;DHT22;45916;52.734;6.544;2023-02-28T01:32:56;3.50;99.90
60039;DHT22;45916;52.734;6.544;2023-02-28T01:35:21;3.50;99.90
60039;DHT22;45916;52.734;6.544;2023-02-28T01:37:47;3.60;99.90
60039;DHT22;45916;52.734;6.544;2023-02-28T01:40:13;3.50;99.90
60039;DHT22;45916;52.734;6.544;2023-02-28T01:42:39;3.50;99.90
60039;DHT22;45916;52.734;6.544;2023-02-28T01:45:25;3.60;99.90
60039;DHT22;45916;52.734;6.544;2023-02-28T01:47:55;3.50;99.90
60039;DHT22;45916;52.734;6.544;2023-02-28T01:50:26;3.50;99.90
60039;DHT22;45916;52.734;6.544;2023-02-28T01:52:54;3.50;99.90
60039;DHT22;45916;52.734;6.544;2023-02-28T01:55:22;3.50;99.90
60039;DHT22;45916;52.734;6.544;2023-02-28T01:57:52;3.50;99.90
60039;DHT22;45916;52.734;6.544;2023-02-28T02:00:23;3.50;99.90
60039;DHT22;45916;52.734;6.544;2023-02-28T02:02:54;3.50;99.90
60039;DHT22;45916;52.734;6.544;2023-02-28T02:05:26;3.50;99.90
60039;DHT22;45916;52.734;6.544;2023-02-28T02:07:55;3.50;99.90
60039;DHT22;45916;52.734;6.544;2023-02-28T02:10:27;3.40;99.90
60039;DHT22;45916;52.734;6.544;2023-02-28T02:15:44;3.40;99.90
60039;DHT22;45916;52.734;6.544;2023-02-28T02:26:59;3.50;99.90
60039;DHT22;45916;52.734;6.544;2023-02-28T02:35:31;3.40;99.90
60039;DHT22;45916;52.734;6.544;2023-02-28T02:38:57;3.40;99.90
60039;DHT22;45916;52.734;6.544;2023-02-28T02:41:19;3.40;99.90
60039;DHT22;45916;52.734;6.544;2023-02-28T02:44:02;3.40;99.90
60039;DHT22;45916;52.734;6.544;2023-02-28T02:46:35;3.40;99.90
60039;DHT22;45916;52.734;6.544;2023-02-28T02:49:08;3.40;99.90
60039;DHT22;45916;52.734;6.544;2023-02-28T02:51:36;3.40;99.90
60039;DHT22;45916;52.734;6.544;2023-02-28T02:54:05;3.30;99.90
60039;DHT22;45916;52.734;6.544;2023-02-28T02:56:34;3.20;99.90
60039;DHT22;45916;52.734;6.544;2023-02-28T02:59:07;3.20;99.90
60039;DHT22;45916;52.734;6.544;2023-02-28T03:01:35;3.20;99.90
60039;DHT22;45916;52.734;6.544;2023-02-28T03:04:06;3.20;99.90
60039;DHT22;45916;52.734;6.544;2023-02-28T03:06:33;3.20;99.90
60039;DHT22;45916;52.734;6.544;2023-02-28T03:09:00;3.20;99.90
60039;DHT22;45916;52.734;6.544;2023-02-28T03:11:26;3.20;99.90
60039;DHT22;45916;52.734;6.544;2023-02-28T03:24:10;3.10;99.90
60039;DHT22;45916;52.734;6.544;2023-02-28T03:26:42;3.20;99.90
60039;DHT22;45916;52.734;6.544;2023-02-28T03:29:23;3.20;99.90
60039;DHT22;45916;52.734;6.544;2023-02-28T03:35:11;3.10;99.90
60039;DHT22;45916;52.734;6.544;2023-02-28T03:37:41;3.10;99.90
60039;DHT22;45916;52.734;6.544;2023-02-28T03:40:17;3.10;99.90
60039;DHT22;45916;52.734;6.544;2023-02-28T03:42:48;3.10;99.90
60039;DHT22;45916;52.734;6.544;2023-02-28T03:45:24;3.10;99.90
60039;DHT22;45916;52.734;6.544;2023-02-28T03:47:57;3.10;99.90
60039;DHT22;45916;52.734;6.544;2023-02-28T03:50:29;3.10;99.90
60039;DHT22;45916;52.734;6.544;2023-02-28T03:53:19;3.10;99.90
60039;DHT22;45916;52.734;6.544;2023-02-28T03:56:13;3.10;99.90
60039;DHT22;45916;52.734;6.544;2023-02-28T04:01:30;3.00;99.90
60039;DHT22;45916;52.734;6.544;2023-02-28T04:03:57;3.00;99.90
60039;DHT22;45916;52.734;6.544;2023-02-28T04:06:23;3.00;99.90
60039;DHT22;45916;52.734;6.544;2023-02-28T04:08:50;3.00;99.90
60039;DHT22;45916;52.734;6.544;2023-02-28T04:11:35;3.00;99.90
60039;DHT22;45916;52.734;6.544;2023-02-28T04:14:03;3.00;99.90
60039;DHT22;45916;52.734;6.544;2023-02-28T04:16:30;3.00;99.90
60039;DHT22;45916;52.734;6.544;2023-02-28T04:18:56;3.00;99.90
60039;DHT22;45916;52.734;6.544;2023-02-28T04:21:31;3.00;99.90
60039;DHT22;45916;52.734;6.544;2023-02-28T04:23:56;3.10;99.90
60039;DHT22;45916;52.734;6.544;2023-02-28T04:26:30;3.00;99.90
60039;DHT22;45916;52.734;6.544;2023-02-28T04:28:56;3.00;99.90
60039;DHT22;45916;52.734;6.544;2023-02-28T04:31:22;3.00;99.90
60039;DHT22;45916;52.734;6.544;2023-02-28T04:33:48;3.00;99.90
60039;DHT22;45916;52.734;6.544;2023-02-28T04:36:13;2.90;99.90
60039;DHT22;45916;52.734;6.544;2023-02-28T04:38:40;3.00;99.90
60039;DHT22;45916;52.734;6.544;2023-02-28T04:41:06;3.00;99.90
60039;DHT22;45916;52.734;6.544;2023-02-28T04:43:32;3.00;99.90
60039;DHT22;45916;52.734;6.544;2023-02-28T04:46:01;3.00;99.90
60039;DHT22;45916;52.734;6.544;2023-02-28T04:48:28;3.10;99.90
60039;DHT22;45916;52.734;6.544;2023-02-28T04:50:54;3.00;99.90
60039;DHT22;45916;52.734;6.544;2023-02-28T04:53:20;3.00;99.90
60039;DHT22;45916;52.734;6.544;2023-02-28T04:55:46;2.90;99.90
60039;DHT22;45916;52.734;6.544;2023-02-28T04:58:13;3.00;99.90
60039;DHT22;45916;52.734;6.544;2023-02-28T05:00:39;2.90;99.90
60039;DHT22;45916;52.734;6.544;2023-02-28T05:03:05;3.00;99.90
60039;DHT22;45916;52.734;6.544;2023-02-28T05:05:31;3.00;99.90
60039;DHT22;45916;52.734;6.544;2023-02-28T05:07:56;2.90;99.90
60039;DHT22;45916;52.734;6.544;2023-02-28T05:10:22;2.90;99.90
60039;DHT22;45916;52.734;6.544;2023-02-28T05:12:48;2.90;99.90
60039;DHT22;45916;52.734;6.544;2023-02-28T05:15:15;2.90;99.90
60039;DHT22;45916;52.734;6.544;2023-02-28T05:17:42;2.90;99.90
60039;DHT22;45916;52.734;6.544;2023-02-28T05:20:09;2.90;99.90
60039;DHT22;45916;52.734;6.544;2023-02-28T05:22:40;2.90;99.90
60039;DHT22;45916;52.734;6.544;2023-02-28T05:25:06;2.90;99.90
60039;DHT22;45916;52.734;6.544;2023-02-28T05:27:32;2.90;99.90
60039;DHT22;45916;52.734;6.544;2023-02-28T05:29:58;2.90;99.90
60039;DHT22;45916;52.734;6.544;2023-02-28T05:32:24;2.90;99.90
60039;DHT22;45916;52.734;6.544;2023-02-28T05:34:50;2.90;99.90
60039;DHT22;45916;52.734;6.544;2023-02-28T05:37:16;2.90;99.90
60039;DHT22;45916;52.734;6.544;2023-02-28T05:39:42;2.80;99.90
60039;DHT22;45916;52.734;6.544;2023-02-28T05:42:08;2.90;99.90
60039;DHT22;45916;52.734;6.544;2023-02-28T05:44:35;2.80;99.90
60039;DHT22;45916;52.734;6.544;2023-02-28T05:47:01;2.80;99.90
60039;DHT22;45916;52.734;6.544;2023-02-28T05:49:27;2.80;99.90
60039;DHT22;45916;52.734;6.544;2023-02-28T05:51:53;2.80;99.90
60039;DHT22;45916;52.734;6.544;2023-02-28T05:54:18;2.90;99.90
60039;DHT22;45916;52.734;6.544;2023-02-28T05:56:44;2.80;99.90
60039;DHT22;45916;52.734;6.544;2023-02-28T05:59:12;2.80;99.90
60039;DHT22;45916;52.734;6.544;2023-02-28T06:01:43;2.80;99.90
60039;DHT22;45916;52.734;6.544;2023-02-28T06:04:14;2.80;99.90
60039;DHT22;45916;52.734;6.544;2023-02-28T06:06:44;2.80;99.90
60039;DHT22;45916;52.734;6.544;2023-02-28T06:09:10;2.80;99.90
60039;DHT22;45916;52.734;6.544;2023-02-28T06:11:36;2.70;99.90
60039;DHT22;45916;52.734;6.544;2023-02-28T06:14:03;2.70;99.90
60039;DHT22;45916;52.734;6.544;2023-02-28T06:16:30;2.70;99.90
60039;DHT22;45916;52.734;6.544;2023-02-28T06:19:01;2.60;99.90
60039;DHT22;45916;52.734;6.544;2023-02-28T06:21:28;2.70;99.90
60039;DHT22;45916;52.734;6.544;2023-02-28T06:23:54;2.60;99.90
60039;DHT22;45916;52.734;6.544;2023-02-28T06:26:20;2.60;99.90
60039;DHT22;45916;52.734;6.544;2023-02-28T06:28:46;2.60;99.90
60039;DHT22;45916;52.734;6.544;2023-02-28T06:31:14;2.60;99.90
60039;DHT22;45916;52.734;6.544;2023-02-28T06:33:41;2.60;99.90
60039;DHT22;45916;52.734;6.544;2023-02-28T06:36:09;2.70;99.90
60039;DHT22;45916;52.734;6.544;2023-02-28T06:38:35;2.60;99.90
60039;DHT22;45916;52.734;6.544;2023-02-28T06:41:02;2.70;99.90
60039;DHT22;45916;52.734;6.544;2023-02-28T06:43:30;2.70;99.90
60039;DHT22;45916;52.734;6.544;2023-02-28T06:45:58;2.70;99.90
60039;DHT22;45916;52.734;6.544;2023-02-28T06:48:25;2.80;99.90
60039;DHT22;45916;52.734;6.544;2023-02-28T06:50:51;3.10;99.90
60039;DHT22;45916;52.734;6.544;2023-02-28T06:53:16;3.50;99.90
60039;DHT22;45916;52.734;6.544;2023-02-28T06:55:42;3.70;99.90
60039;DHT22;45916;52.734;6.544;2023-02-28T06:58:08;3.80;99.90
60039;DHT22;45916;52.734;6.544;2023-02-28T07:00:43;3.80;99.90
60039;DHT22;45916;52.734;6.544;2023-02-28T07:03:10;3.70;99.90
60039;DHT22;45916;52.734;6.544;2023-02-28T07:05:37;3.60;99.90
60039;DHT22;45916;52.734;6.544;2023-02-28T07:08:04;3.50;99.90
60039;DHT22;45916;52.734;6.544;2023-02-28T07:10:31;3.50;99.90
60039;DHT22;45916;52.734;6.544;2023-02-28T07:12:57;3.60;99.90
60039;DHT22;45916;52.734;6.544;2023-02-28T07:15:22;3.50;99.90
60039;DHT22;45916;52.734;6.544;2023-02-28T07:17:48;3.60;99.90
60039;DHT22;45916;52.734;6.544;2023-02-28T07:20:14;3.60;99.90
60039;DHT22;45916;52.734;6.544;2023-02-28T07:22:39;3.70;99.90
60039;DHT22;45916;52.734;6.544;2023-02-28T07:25:05;3.80;99.90
60039;DHT22;45916;52.734;6.544;2023-02-28T07:27:31;3.70;99.90
60039;DHT22;45916;52.734;6.544;2023-02-28T07:29:57;3.80;99.90
60039;DHT22;45916;52.734;6.544;2023-02-28T07:32:23;3.90;99.90
60039;DHT22;45916;52.734;6.544;2023-02-28T07:34:48;4.10;99.90
60039;DHT22;45916;52.734;6.544;2023-02-28T07:37:15;4.10;99.90
60039;DHT22;45916;52.734;6.544;2023-02-28T07:39:40;4.20;99.90
60039;DHT22;45916;52.734;6.544;2023-02-28T07:42:09;4.30;99.90
60039;DHT22;45916;52.734;6.544;2023-02-28T07:44:38;4.50;99.90
60039;DHT22;45916;52.734;6.544;2023-02-28T07:47:10;4.70;99.90
60039;DHT22;45916;52.734;6.544;2023-02-28T07:49:36;4.90;99.90
60039;DHT22;45916;52.734;6.544;2023-02-28T07:52:06;5.10;99.90
60039;DHT22;45916;52.734;6.544;2023-02-28T07:54:33;5.50;99.90
60039;DHT22;45916;52.734;6.544;2023-02-28T07:56:59;6.00;99.90
60039;DHT22;45916;52.734;6.544;2023-02-28T07:59:25;6.90;99.90
60039;DHT22;45916;52.734;6.544;2023-02-28T08:01:51;7.90;99.90
60039;DHT22;45916;52.734;6.544;2023-02-28T08:04:17;9.00;99.90
60039;DHT22;45916;52.734;6.544;2023-02-28T08:06:43;10.60;99.90
60039;DHT22;45916;52.734;6.544;2023-02-28T08:09:09;12.60;99.90
60039;DHT22;45916;52.734;6.544;2023-02-28T08:11:35;14.40;99.90
60039;DHT22;45916;52.734;6.544;2023-02-28T08:14:01;16.10;99.90
60039;DHT22;45916;52.734;6.544;2023-02-28T08:16:27;17.40;91.00
60039;DHT22;45916;52.734;6.544;2023-02-28T08:18:53;17.60;70.40
60039;DHT22;45916;52.734;6.544;2023-02-28T08:21:20;18.00;73.80
60039;DHT22;45916;52.734;6.544;2023-02-28T08:23:47;19.10;70.10
60039;DHT22;45916;52.734;6.544;2023-02-28T08:26:14;20.20;65.30
60039;DHT22;45916;52.734;6.544;2023-02-28T08:28:40;21.50;59.50
60039;DHT22;45916;52.734;6.544;2023-02-28T08:31:10;22.80;55.80
60039;DHT22;45916;52.734;6.544;2023-02-28T08:33:38;24.10;49.70
60039;DHT22;45916;52.734;6.544;2023-02-28T08:36:05;25.30;48.50
60039;DHT22;45916;52.734;6.544;2023-02-28T08:38:31;26.30;44.80
60039;DHT22;45916;52.734;6.544;2023-02-28T08:40:59;27.30;44.00
60039;DHT22;45916;52.734;6.544;2023-02-28T08:43:24;28.30;43.40
60039;DHT22;45916;52.734;6.544;2023-02-28T08:45:56;28.90;40.30
60039;DHT22;45916;52.734;6.544;2023-02-28T08:48:24;28.20;38.00
60039;DHT22;45916;52.734;6.544;2023-02-28T08:51:01;26.80;38.00
60039;DHT22;45916;52.734;6.544;2023-02-28T08:53:27;25.20;39.80
60039;DHT22;45916;52.734;6.544;2023-02-28T08:56:04;24.40;39.90
60039;DHT22;45916;52.734;6.544;2023-02-28T08:58:31;24.60;38.00
60039;DHT22;45916;52.734;6.544;2023-02-28T09:00:57;24.90;38.70
60039;DHT22;45916;52.734;6.544;2023-02-28T09:03:23;24.50;39.20
60039;DHT22;45916;52.734;6.544;2023-02-28T09:05:58;24.10;39.90
60039;DHT22;45916;52.734;6.544;2023-02-28T09:08:25;24.30;39.20
60039;DHT22;45916;52.734;6.544;2023-02-28T09:10:51;24.60;39.20
60039;DHT22;45916;52.734;6.544;2023-02-28T09:13:18;24.90;38.50
60039;DHT22;45916;52.734;6.544;2023-02-28T09:15:44;23.60;37.50
60039;DHT22;45916;52.734;6.544;2023-02-28T09:18:11;22.90;39.90
60039;DHT22;45916;52.734;6.544;2023-02-28T09:20:42;23.30;38.30
60039;DHT22;45916;52.734;6.544;2023-02-28T09:23:09;22.40;35.50
60039;DHT22;45916;52.734;6.544;2023-02-28T09:25:36;21.90;37.00
60039;DHT22;45916;52.734;6.544;2023-02-28T09:28:02;21.10;37.60
60039;DHT22;45916;52.734;6.544;2023-02-28T09:30:29;19.80;38.20
60039;DHT22;45916;52.734;6.544;2023-02-28T09:32:55;19.80;38.70
60039;DHT22;45916;52.734;6.544;2023-02-28T09:35:21;19.10;39.10
60039;DHT22;45916;52.734;6.544;2023-02-28T09:37:49;18.90;38.00
60039;DHT22;45916;52.734;6.544;2023-02-28T09:40:16;18.60;39.60
60039;DHT22;45916;52.734;6.544;2023-02-28T09:42:50;17.70;39.40
60039;DHT22;45916;52.734;6.544;2023-02-28T09:45:36;17.00;40.70
60039;DHT22;45916;52.734;6.544;2023-02-28T09:48:09;16.60;41.50
60039;DHT22;45916;52.734;6.544;2023-02-28T09:50:41;17.10;43.50
60039;DHT22;45916;52.734;6.544;2023-02-28T09:53:19;18.10;38.00
60039;DHT22;45916;52.734;6.544;2023-02-28T09:55:52;18.00;38.80
60039;DHT22;45916;52.734;6.544;2023-02-28T10:01:12;19.20;37.70
60039;DHT22;45916;52.734;6.544;2023-02-28T10:06:50;20.50;35.00
60039;DHT22;45916;52.734;6.544;2023-02-28T10:09:20;20.70;35.20
60039;DHT22;45916;52.734;6.544;2023-02-28T10:11:51;21.10;35.60
60039;DHT22;45916;52.734;6.544;2023-02-28T10:14:21;21.80;34.50
60039;DHT22;45916;52.734;6.544;2023-02-28T10:16:56;22.60;33.80
60039;DHT22;45916;52.734;6.544;2023-02-28T10:20:05;22.70;33.30
60039;DHT22;45916;52.734;6.544;2023-02-28T10:22:57;22.40;33.20
60039;DHT22;45916;52.734;6.544;2023-02-28T10:25:26;22.50;33.60
60039;DHT22;45916;52.734;6.544;2023-02-28T10:28:16;23.40;32.40
60039;DHT22;45916;52.734;6.544;2023-02-28T10:30:46;23.90;32.00
60039;DHT22;45916;52.734;6.544;2023-02-28T10:35:51;25.10;32.00
60039;DHT22;45916;52.734;6.544;2023-02-28T10:38:24;25.50;31.20
60039;DHT22;45916;52.734;6.544;2023-02-28T10:40:50;25.00;31.10
60039;DHT22;45916;52.734;6.544;2023-02-28T10:43:18;24.60;31.90
60039;DHT22;45916;52.734;6.544;2023-02-28T10:45:55;24.60;33.80
60039;DHT22;45916;52.734;6.544;2023-02-28T10:58:57;17.80;35.70
60039;DHT22;45916;52.734;6.544;2023-02-28T11:01:34;17.30;37.10
60039;DHT22;45916;52.734;6.544;2023-02-28T11:04:01;17.00;36.90
60039;DHT22;45916;52.734;6.544;2023-02-28T11:06:34;16.80;39.20
60039;DHT22;45916;52.734;6.544;2023-02-28T11:09:14;16.40;40.00
60039;DHT22;45916;52.734;6.544;2023-02-28T11:11:43;15.60;38.20
60039;DHT22;45916;52.734;6.544;2023-02-28T11:14:30;14.20;40.20
60039;DHT22;45916;52.734;6.544;2023-02-28T11:17:00;13.60;41.90
60039;DHT22;45916;52.734;6.544;2023-02-28T11:19:44;13.30;43.00
60039;DHT22;45916;52.734;6.544;2023-02-28T11:22:20;13.10;42.80
60039;DHT22;45916;52.734;6.544;2023-02-28T11:24:50;12.50;43.30
60039;DHT22;45916;52.734;6.544;2023-02-28T11:29:55;11.90;44.30
60039;DHT22;45916;52.734;6.544;2023-02-28T11:32:23;11.70;45.70
60039;DHT22;45916;52.734;6.544;2023-02-28T11:35:14;11.10;46.40
60039;DHT22;45916;52.734;6.544;2023-02-28T11:37:42;10.80;47.40
60039;DHT22;45916;52.734;6.544;2023-02-28T11:48:46;9.10;51.60
60039;DHT22;45916;52.734;6.544;2023-02-28T11:51:28;8.90;52.70
60039;DHT22;45916;52.734;6.544;2023-02-28T11:56:48;8.70;52.00
60039;DHT22;45916;52.734;6.544;2023-02-28T12:02:26;8.30;53.40
60039;DHT22;45916;52.734;6.544;2023-02-28T12:16:53;7.40;55.60
60039;DHT22;45916;52.734;6.544;2023-02-28T12:22:22;7.00;58.20
60039;DHT22;45916;52.734;6.544;2023-02-28T12:27:20;7.10;57.90
60039;DHT22;45916;52.734;6.544;2023-02-28T12:34:57;6.80;57.70
60039;DHT22;45916;52.734;6.544;2023-02-28T12:37:31;6.80;59.50
60039;DHT22;45916;52.734;6.544;2023-02-28T12:40:02;6.80;57.50
60039;DHT22;45916;52.734;6.544;2023-02-28T12:42:56;6.80;58.50
60039;DHT22;45916;52.734;6.544;2023-02-28T12:45:26;6.80;59.30
60039;DHT22;45916;52.734;6.544;2023-02-28T12:47:58;6.80;58.10
60039;DHT22;45916;52.734;6.544;2023-02-28T12:50:26;6.90;59.10
60039;DHT22;45916;52.734;6.544;2023-02-28T12:55:46;6.90;59.70
60039;DHT22;45916;52.734;6.544;2023-02-28T12:58:24;6.80;59.10
60039;DHT22;45916;52.734;6.544;2023-02-28T13:03:47;6.90;61.10
60039;DHT22;45916;52.734;6.544;2023-02-28T13:08:53;6.90;59.70
60039;DHT22;45916;52.734;6.544;2023-02-28T13:11:47;6.90;61.20
60039;DHT22;45916;52.734;6.544;2023-02-28T13:19:34;7.20;62.50
60039;DHT22;45916;52.734;6.544;2023-02-28T13:22:01;7.10;61.20
60039;DHT22;45916;52.734;6.544;2023-02-28T13:24:41;7.10;60.60
60039;DHT22;45916;52.734;6.544;2023-02-28T13:29:41;7.20;61.80
60039;DHT22;45916;52.734;6.544;2023-02-28T13:39:56;7.00;61.00
60039;DHT22;45916;52.734;6.544;2023-02-28T13:42:23;7.10;61.50
60039;DHT22;45916;52.734;6.544;2023-02-28T13:47:44;7.00;61.60
60039;DHT22;45916;52.734;6.544;2023-02-28T13:56:02;7.00;62.40
60039;DHT22;45916;52.734;6.544;2023-02-28T14:04:14;7.10;61.90
60039;DHT22;45916;52.734;6.544;2023-02-28T14:06:37;7.10;60.10
60039;DHT22;45916;52.734;6.544;2023-02-28T14:09:06;7.10;60.00
60039;DHT22;45916;52.734;6.544;2023-02-28T14:11:42;7.10;59.50
60039;DHT22;45916;52.734;6.544;2023-02-28T14:16:56;7.10;60.10
60039;DHT22;45916;52.734;6.544;2023-02-28T14:19:28;7.00;61.60
60039;DHT22;45916;52.734;6.544;2023-02-28T14:22:07;7.00;61.30
60039;DHT22;45916;52.734;6.544;2023-02-28T14:27:53;7.10;60.60
60039;DHT22;45916;52.734;6.544;2023-02-28T14:33:44;6.90;61.80
60039;DHT22;45916;52.734;6.544;2023-02-28T14:36:12;7.00;61.80
60039;DHT22;45916;52.734;6.544;2023-02-28T14:38:45;7.00;61.80
60039;DHT22;45916;52.734;6.544;2023-02-28T14:41:21;6.90;62.80
60039;DHT22;45916;52.734;6.544;2023-02-28T14:43:59;6.90;62.50
60039;DHT22;45916;52.734;6.544;2023-02-28T14:46:37;6.90;63.60
60039;DHT22;45916;52.734;6.544;2023-02-28T14:49:05;6.90;63.70
60039;DHT22;45916;52.734;6.544;2023-02-28T14:51:33;6.90;63.60
60039;DHT22;45916;52.734;6.544;2023-02-28T14:54:01;6.80;63.10
60039;DHT22;45916;52.734;6.544;2023-02-28T14:56:35;6.90;62.50
60039;DHT22;45916;52.734;6.544;2023-02-28T14:59:02;6.80;63.10
60039;DHT22;45916;52.734;6.544;2023-02-28T15:01:28;6.80;65.30
60039;DHT22;45916;52.734;6.544;2023-02-28T15:03:59;6.90;63.80
60039;DHT22;45916;52.734;6.544;2023-02-28T15:06:26;6.80;64.90
60039;DHT22;45916;52.734;6.544;2023-02-28T15:09:16;6.80;64.70
60039;DHT22;45916;52.734;6.544;2023-02-28T15:11:46;6.80;67.80
60039;DHT22;45916;52.734;6.544;2023-02-28T15:14:19;6.80;71.40
60039;DHT22;45916;52.734;6.544;2023-02-28T15:16:48;6.80;65.60
60039;DHT22;45916;52.734;6.544;2023-02-28T15:19:27;6.80;64.40
60039;DHT22;45916;52.734;6.544;2023-02-28T15:22:08;6.70;64.90
60039;DHT22;45916;52.734;6.544;2023-02-28T15:24:49;6.70;64.60
60039;DHT22;45916;52.734;6.544;2023-02-28T15:27:26;6.70;64.60
60039;DHT22;45916;52.734;6.544;2023-02-28T15:30:17;6.70;66.20
60039;DHT22;45916;52.734;6.544;2023-02-28T15:32:44;6.60;63.50
60039;DHT22;45916;52.734;6.544;2023-02-28T15:35:29;6.60;63.20
60039;DHT22;45916;52.734;6.544;2023-02-28T15:38:12;6.60;63.80
60039;DHT22;45916;52.734;6.544;2023-02-28T15:40:58;6.50;64.80
60039;DHT22;45916;52.734;6.544;2023-02-28T15:43:42;6.50;65.00
60039;DHT22;45916;52.734;6.544;2023-02-28T15:46:12;6.40;65.40
60039;DHT22;45916;52.734;6.544;2023-02-28T15:48:54;6.40;65.90
60039;DHT22;45916;52.734;6.544;2023-02-28T15:51:35;6.40;64.50
60039;DHT22;45916;52.734;6.544;2023-02-28T15:54:06;6.40;64.90
60039;DHT22;45916;52.734;6.544;2023-02-28T15:56:38;6.30;65.20
60039;DHT22;45916;52.734;6.544;2023-02-28T15:59:15;6.30;65.00
60039;DHT22;45916;52.734;6.544;2023-02-28T16:01:42;6.30;68.70
60039;DHT22;45916;52.734;6.544;2023-02-28T16:04:18;6.20;66.50
60039;DHT22;45916;52.734;6.544;2023-02-28T16:07:02;6.20;66.90
60039;DHT22;45916;52.734;6.544;2023-02-28T16:09:28;6.20;68.90
60039;DHT22;45916;52.734;6.544;2023-02-28T16:11:59;6.00;68.00
60039;DHT22;45916;52.734;6.544;2023-02-28T16:14:28;6.10;68.00
60039;DHT22;45916;52.734;6.544;2023-02-28T16:17:04;6.00;68.90
60039;DHT22;45916;52.734;6.544;2023-02-28T16:19:31;5.90;71.10
60039;DHT22;45916;52.734;6.544;2023-02-28T16:21:57;5.90;70.50
60039;DHT22;45916;52.734;6.544;2023-02-28T16:24:23;5.80;70.40
60039;DHT22;45916;52.734;6.544;2023-02-28T16:26:51;5.70;70.90
60039;DHT22;45916;52.734;6.544;2023-02-28T16:29:26;5.60;73.20
60039;DHT22;45916;52.734;6.544;2023-02-28T16:31:53;5.50;72.10
60039;DHT22;45916;52.734;6.544;2023-02-28T16:34:19;5.40;72.20
60039;DHT22;45916;52.734;6.544;2023-02-28T16:36:47;5.30;73.90
60039;DHT22;45916;52.734;6.544;2023-02-28T16:39:13;5.20;75.60
60039;DHT22;45916;52.734;6.544;2023-02-28T16:41:42;5.10;77.80
60039;DHT22;45916;52.734;6.544;2023-02-28T16:44:14;5.00;80.70
60039;DHT22;45916;52.734;6.544;2023-02-28T16:46:43;5.00;81.10
60039;DHT22;45916;52.734;6.544;2023-02-28T16:49:12;4.90;80.60
60039;DHT22;45916;52.734;6.544;2023-02-28T16:51:38;4.80;82.20
60039;DHT22;45916;52.734;6.544;2023-02-28T16:54:04;4.70;83.40
60039;DHT22;45916;52.734;6.544;2023-02-28T16:56:30;4.60;86.30
60039;DHT22;45916;52.734;6.544;2023-02-28T16:59:00;4.50;86.90
60039;DHT22;45916;52.734;6.544;2023-02-28T17:01:26;4.40;88.30
60039;DHT22;45916;52.734;6.544;2023-02-28T17:03:53;4.30;88.20
60039;DHT22;45916;52.734;6.544;2023-02-28T17:06:27;4.20;90.40
60039;DHT22;45916;52.734;6.544;2023-02-28T17:08:54;4.00;92.00
60039;DHT22;45916;52.734;6.544;2023-02-28T17:11:20;3.90;93.80
60039;DHT22;45916;52.734;6.544;2023-02-28T17:13:47;3.80;94.50
60039;DHT22;45916;52.734;6.544;2023-02-28T17:16:32;3.60;95.60
60039;DHT22;45916;52.734;6.544;2023-02-28T17:19:00;3.50;98.10
60039;DHT22;45916;52.734;6.544;2023-02-28T17:21:26;3.40;98.10
60039;DHT22;45916;52.734;6.544;2023-02-28T17:23:52;3.30;98.80
60039;DHT22;45916;52.734;6.544;2023-02-28T17:26:20;3.10;99.90
60039;DHT22;45916;52.734;6.544;2023-02-28T17:28:47;2.90;99.90
60039;DHT22;45916;52.734;6.544;2023-02-28T17:31:12;2.80;99.90
60039;DHT22;45916;52.734;6.544;2023-02-28T17:33:38;2.70;99.90
60039;DHT22;45916;52.734;6.544;2023-02-28T17:36:05;2.60;99.90
60039;DHT22;45916;52.734;6.544;2023-02-28T17:38:32;2.50;99.90
60039;DHT22;45916;52.734;6.544;2023-02-28T17:40:57;2.50;99.90
60039;DHT22;45916;52.734;6.544;2023-02-28T17:43:25;2.40;99.90
60039;DHT22;45916;52.734;6.544;2023-02-28T17:45:51;2.40;99.90
60039;DHT22;45916;52.734;6.544;2023-02-28T17:48:17;2.20;99.90
60039;DHT22;45916;52.734;6.544;2023-02-28T17:50:43;2.20;99.90
60039;DHT22;45916;52.734;6.544;2023-02-28T17:53:09;2.00;99.90
60039;DHT22;45916;52.734;6.544;2023-02-28T17:55:35;1.90;99.90
60039;DHT22;45916;52.734;6.544;2023-02-28T17:58:01;1.80;99.90
60039;DHT22;45916;52.734;6.544;2023-02-28T18:00:29;1.60;99.90
60039;DHT22;45916;52.734;6.544;2023-02-28T18:02:54;1.60;99.90
60039;DHT22;45916;52.734;6.544;2023-02-28T18:05:20;1.50;99.90
60039;DHT22;45916;52.734;6.544;2023-02-28T18:07:46;1.50;99.90
60039;DHT22;45916;52.734;6.544;2023-02-28T18:10:18;1.40;99.90
60039;DHT22;45916;52.734;6.544;2023-02-28T18:12:49;1.40;99.90
60039;DHT22;45916;52.734;6.544;2023-02-28T18:15:17;1.30;99.90
60039;DHT22;45916;52.734;6.544;2023-02-28T18:17:43;1.30;99.90